Terminal Aerodrome Forecast
Issued by NWS

Home | Current Version | Previous Version | Text Only | Print | Product List | Glossary On
Versions: 1 2 3 4 5 6 7 8 9 10 11 12 13 14 15
000
FTUS44 KBMX 191100
TAFANB
TAF
KANB 191120Z 1912/2012 06004KT 6SM -SHRA BR OVC040
     FM191800 06008G16KT P6SM VCSH OVC060
     FM200000 03003KT P6SM SCT050
     FM200600 00000KT P6SM SKC=

USA.gov is the U.S. government's official web portal to all federal, state and local government web resources and services.